• Join FlightAware (Why Join?)
  • Login
  • US Flag 
 
07:16PM EST


 

Airport Tracker/Info


-or-


 

Live Flight TrackerFlight Track Log ✈ FLG3800 ✈ 16-May-2013 ✈ KDTW - KBTV

Flight Track Log - Related Links

Times and Time Zones

All times are in EDT time to prevent confusion due to time zone crossing. See the FLG3800 flight status page for this flight to view local times or setup timezone preferences in your user account.

Time Position Orientation Groundspeed Altitude Reporting Facility
EDT Latitude Longitude Course Direction KTS MPH feet Rate Location/Type
09:41PM 42.2314 -83.3342 82° East 144 166 1,500  Level Cleveland Center
09:43PM 42.2931 -83.2808 33° Northeast 211 243 4,100 1,800 Climbing Cleveland Center
09:44PM 42.2878 -82.8942 75° East  Level FlightAware Approximate
09:44PM 42.3442 -83.2353 33° Northeast 273 314 5,700  Level Cleveland Center
09:45PM 42.3175 -82.7422 82° East  Level FlightAware Approximate
09:45PM 42.4172 -83.1342 46° Northeast 302 348 9,100  Level Cleveland Center
09:46PM 42.3330 -82.5864 82° East  Level FlightAware Approximate
09:46PM 42.4106 -83.0581 97° East 307 353 10,900  Level Cleveland Center
09:47PM 42.4031 -82.9256 94° East 329 379 12,000 1,320 Climbing Cleveland Center
09:48PM 42.3911 -82.7872 97° East 353 406 13,600 1,680 Climbing Cleveland Center
09:49PM 42.3794 -82.6294 96° East 368 423 15,400 1,500 Climbing Cleveland Center
09:50PM 42.3675 -82.4772 96° East 388 447 16,700 1,140 Climbing Cleveland Center
09:51PM 42.3617 -82.3225 93° East 400 460 17,700 960 Climbing Cleveland Center
09:52PM 42.3536 -82.1594 94° East 413 475 18,700 1,020 Climbing Cleveland Center
09:53PM 42.3472 -81.9964 93° East 431 496 19,800 1,020 Climbing Cleveland Center
09:54PM 42.3408 -81.8333 93° East 436 502 20,800 960 Climbing Cleveland Center
09:55PM 42.3319 -81.6700 94° East 441 507 21,800 960 Climbing Cleveland Center
09:56PM 42.3272 -81.5072 92° East 436 502 22,800 960 Climbing Cleveland Center
09:57PM 42.3181 -81.3442 94° East 436 502 23,800 960 Climbing Cleveland Center
09:58PM 42.3106 -81.1811 94° East 446 513 24,800 1,020 Climbing Cleveland Center
09:59PM 42.3031 -81.0156 93° East 441 507 25,900 900 Climbing Cleveland Center
10:00PM 42.2931 -80.8694 95° East 441 507 26,700 540 Climbing Cleveland Center
10:01PM 42.2850 -80.7067 94° East 441 507 27,000 120 Climbing Cleveland Center
10:02PM 42.2808 -80.5325 92° East 449 517 27,000  Level Cleveland Center
10:03PM 42.3183 -80.3669 73° East 442 509 27,000  Level Cleveland Center
10:04PM 42.3553 -80.2011 73° East 453 521 27,000  Level Cleveland Center
10:05PM 42.3942 -80.0125 74° East 464 534 27,000  Level Cleveland Center
10:06PM 42.4308 -79.8575 72° East 464 534 27,000  Level Cleveland Center
10:07PM 42.4819 -79.6936 67° East 464 534 27,000  Level Cleveland Center
10:08PM 42.5389 -79.5378 64° Northeast 458 527 27,000  Level Cleveland Center
10:09PM 42.5978 -79.3789 63° Northeast 458 527 27,000  Level Cleveland Center
10:10PM 42.6564 -79.2197 63° Northeast 463 533 27,000  Level Cleveland Center
10:11PM 42.7106 -79.0575 66° East 468 539 27,000  Level Cleveland Center
10:12PM 42.7689 -78.8975 64° Northeast 468 539 27,000  Level Cleveland Center
10:13PM 42.8269 -78.7375 64° Northeast 468 539 27,000  Level Cleveland Center
10:14PM 42.8825 -78.5800 64° Northeast 468 539 27,000 60 Level Cleveland Center
10:15PM 42.9361 -78.4194 65° Northeast 468 539 27,200 360 Climbing Cleveland Center
10:16PM 42.9933 -78.2642 63° Northeast 468 539 27,800 600 Climbing Cleveland Center
10:17PM 43.0464 -78.1058 65° Northeast 463 533 28,400 600 Climbing Cleveland Center
10:18PM 43.1014 -77.9472 65° Northeast 457 526 29,000 300 Climbing Cleveland Center
10:19PM 43.1558 -77.7886 65° Northeast 457 526 29,000  Level Cleveland Center
10:20PM 43.2103 -77.6294 65° Northeast 451 519 29,000  Level Cleveland Center
10:21PM 43.3083 -77.3372 65° Northeast 467 537 29,000  Level Boston Center
10:22PM 43.3653 -77.1733 64° Northeast 472 543 29,000  Level Boston Center
10:23PM 43.4200 -77.0061 66° East 472 543 29,000  Level Boston Center
10:24PM 43.4789 -76.8358 64° Northeast 472 543 29,000  Level Boston Center
10:25PM 43.5422 -76.6483 65° Northeast 472 543 29,000  Level Boston Center
10:26PM 43.5983 -76.4772 66° East 477 549 29,000  Level Boston Center
10:27PM 43.6544 -76.3031 66° East 477 549 29,000  Level Boston Center
10:28PM 43.7100 -76.1314 66° East 487 560 29,000  Level Boston Center
10:29PM 43.7656 -75.9564 66° East 492 566 29,000  Level Boston Center
10:30PM 43.8231 -75.7783 66° East 492 566 29,000  Level Boston Center
10:31PM 43.8783 -75.5972 67° East 492 566 29,000  Level Boston Center
10:32PM 43.9283 -75.4383 66° East 492 566 29,000 -300 Level Boston Center
10:33PM 43.9853 -75.2506 67° East 502 578 28,500 -1,260 Descending Boston Center
10:34PM 44.0394 -75.0769 66° East 502 578 26,500 -2,100 Descending Boston Center
10:35PM 44.0867 -74.9200 67° East 475 547 24,400 -2,100 Descending Boston Center
10:36PM 44.1358 -74.7572 67° East 456 525 22,300 -2,100 Descending Boston Center
10:37PM 44.1847 -74.6000 67° East 445 512 20,200 -2,100 Descending Boston Center
10:38PM 44.2314 -74.4422 68° East 439 505 18,100 -1,800 Descending Boston Center
10:39PM 44.2778 -74.2900 67° East 432 497 16,600 -1,500 Descending Boston Center
10:40PM 44.3114 -74.1317 73° East 432 497 15,200 -1,380 Descending Boston Center
10:41PM 44.3386 -73.9697 77° East 423 487 13,900 -1,920 Descending Boston Center
10:42PM 44.3633 -73.8222 77° East 411 473 11,400 -2,100 Descending Boston Center
10:43PM 44.3858 -73.6864 77° East 374 430 9,800 -1,860 Descending Boston Center
10:44PM 44.4058 -73.5647 77° East 326 375 7,700 -2,160 Descending Boston Center
10:45PM 44.4236 -73.4517 78° East 303 349 5,500 -2,040 Descending Boston Center
10:46PM 44.4369 -73.3500 80° East 274 315 3,700 -900 Descending Boston Center
10:47PM 44.4019 -73.2739 123° Southeast 224 258 3,800  Climbing Boston Center
10:48PM 44.3692 -73.2008 122° Southeast 212 244 3,700 -120 Descending Boston Center